Time;durP1;ratioP1;P1;durP2;ratioP2;P2;SDS_P1;SDS_P2;PMS_P1;PMS_P2;Temp;Humidity;BMP_temperature;BMP_pressure;BME280_temperature;BME280_humidity;BME280_pressure;Samples;Min_cycle;Max_cycle;Signal;HPM_P1;HPM_P2
2022/06/25 00:00:31;;;;;;;13.55;12.32;;;20.00;99.90;;;;;;2088923;28;20071;-70
2022/06/25 00:01:32;;;;;;;13.35;12.15;;;19.90;99.90;;;;;;2089015;28;20032;-71
2022/06/25 00:02:33;;;;;;;13.77;12.48;;;20.00;99.90;;;;;;2079983;28;20121;-69
2022/06/25 00:03:34;;;;;;;13.63;12.32;;;20.00;99.90;;;;;;2080152;28;20031;-72
2022/06/25 00:05:53;;;;;;;13.43;12.20;;;20.00;99.90;;;;;;2094613;28;20060;-70
2022/06/25 00:06:54;;;;;;;13.23;11.93;;;20.00;99.90;;;;;;2088190;28;20017;-69
2022/06/25 00:07:56;;;;;;;13.25;12.05;;;20.00;99.90;;;;;;2080350;28;20468;-69
2022/06/25 00:08:56;;;;;;;13.50;12.23;;;20.00;99.90;;;;;;2080475;28;20041;-69
2022/06/25 00:09:57;;;;;;;13.07;11.85;;;19.90;99.90;;;;;;2088689;28;20067;-69
2022/06/25 00:10:58;;;;;;;12.93;11.63;;;20.00;99.90;;;;;;2097096;28;20028;-70
2022/06/25 00:13:19;;;;;;;12.50;11.40;;;19.90;99.90;;;;;;2088963;28;20032;-70
2022/06/25 00:14:19;;;;;;;12.52;11.43;;;20.00;99.90;;;;;;2089255;28;20040;-71
2022/06/25 00:15:20;;;;;;;12.57;11.27;;;20.00;99.90;;;;;;2089040;28;20033;-70
2022/06/25 00:16:21;;;;;;;13.55;12.15;;;20.00;99.90;;;;;;2088722;28;20040;-71
2022/06/25 00:17:21;;;;;;;13.32;12.05;;;20.00;99.90;;;;;;2088787;28;20036;-71
2022/06/25 00:18:22;;;;;;;13.27;11.98;;;20.00;99.90;;;;;;2087693;28;20062;-69
2022/06/25 00:19:23;;;;;;;13.55;12.23;;;20.00;99.90;;;;;;2079688;28;20467;-69
2022/06/25 00:20:24;;;;;;;14.00;12.80;;;20.00;99.90;;;;;;2087732;28;20037;-70
2022/06/25 00:21:25;;;;;;;13.88;12.45;;;20.00;99.90;;;;;;2088551;28;20073;-68
2022/06/25 00:22:25;;;;;;;12.50;11.40;;;20.00;99.90;;;;;;2087813;28;20082;-69
2022/06/25 00:23:26;;;;;;;12.93;11.65;;;20.00;99.90;;;;;;2079745;28;20760;-70
2022/06/25 00:24:27;;;;;;;12.57;11.48;;;20.00;99.90;;;;;;2087827;28;20088;-69
2022/06/25 00:25:28;;;;;;;12.98;11.73;;;20.00;99.90;;;;;;2088375;28;20108;-69
2022/06/25 00:26:28;;;;;;;13.27;12.07;;;20.00;99.90;;;;;;2087638;28;20021;-69
2022/06/25 00:27:29;;;;;;;14.02;12.63;;;20.00;99.90;;;;;;2079391;28;20029;-69
2022/06/25 00:28:30;;;;;;;13.00;11.68;;;20.00;99.90;;;;;;2087477;28;20435;-69
2022/06/25 00:29:31;;;;;;;12.82;11.52;;;20.00;99.90;;;;;;2087649;28;20024;-69
2022/06/25 00:30:33;;;;;;;12.95;11.73;;;20.00;99.90;;;;;;2087590;28;20041;-70
2022/06/25 00:31:34;;;;;;;12.68;11.38;;;20.10;99.90;;;;;;2088359;28;20021;-69
2022/06/25 00:32:36;;;;;;;13.63;12.25;;;20.00;99.90;;;;;;2088476;28;20024;-70
2022/06/25 00:33:36;;;;;;;14.32;12.55;;;20.10;99.90;;;;;;2088264;28;20029;-70
2022/06/25 00:34:38;;;;;;;12.85;11.65;;;20.00;99.90;;;;;;2079194;28;20029;-69
2022/06/25 00:35:39;;;;;;;13.10;11.90;;;20.10;99.90;;;;;;2071437;28;20037;-71
2022/06/25 00:36:39;;;;;;;12.70;11.57;;;20.00;99.90;;;;;;2087491;28;20029;-70
2022/06/25 00:37:40;;;;;;;12.65;11.45;;;20.00;99.90;;;;;;2079452;28;20033;-69
2022/06/25 00:38:41;;;;;;;12.80;11.60;;;20.10;99.90;;;;;;2079341;28;20449;-71
2022/06/25 00:39:44;;;;;;;13.32;12.13;;;20.00;99.90;;;;;;2087562;28;20025;-70
2022/06/25 00:40:45;;;;;;;13.45;12.15;;;20.00;99.90;;;;;;2087538;28;20087;-72
2022/06/25 00:41:46;;;;;;;13.40;12.10;;;20.00;99.90;;;;;;2079504;28;20236;-69
2022/06/25 00:42:50;;;;;;;13.30;12.10;;;20.10;99.90;;;;;;2087815;28;20029;-70
2022/06/25 00:43:51;;;;;;;13.85;12.55;;;20.10;99.90;;;;;;2088379;28;20132;-72
2022/06/25 00:44:53;;;;;;;14.10;12.70;;;20.00;99.90;;;;;;2079288;28;20037;-69
2022/06/25 00:45:54;;;;;;;13.65;12.45;;;20.00;99.90;;;;;;2071431;28;20117;-70
2022/06/25 00:46:55;;;;;;;13.55;12.25;;;20.00;99.90;;;;;;2079183;28;20024;-71
2022/06/25 00:47:55;;;;;;;14.10;12.65;;;20.00;99.90;;;;;;2087608;28;20021;-69
2022/06/25 00:48:56;;;;;;;14.10;12.70;;;20.00;99.90;;;;;;2088056;28;20167;-69
2022/06/25 00:49:57;;;;;;;13.95;12.50;;;20.00;99.90;;;;;;2087363;28;20119;-70
2022/06/25 00:51:01;;;;;;;13.40;12.00;;;20.00;99.90;;;;;;2087563;28;20027;-69
2022/06/25 00:52:10;;;;;;;13.48;12.20;;;20.00;99.90;;;;;;2088188;28;20029;-69
2022/06/25 00:53:12;;;;;;;13.00;11.80;;;20.00;99.90;;;;;;2087512;28;20036;-70
2022/06/25 00:54:15;;;;;;;13.88;12.43;;;20.00;99.90;;;;;;2079485;28;20037;-70
2022/06/25 00:55:19;;;;;;;12.52;11.35;;;20.00;99.90;;;;;;2087422;28;20036;-69
2022/06/25 00:56:21;;;;;;;12.70;11.55;;;20.00;99.90;;;;;;2088197;28;20108;-69
2022/06/25 00:57:28;;;;;;;13.55;12.23;;;20.00;99.90;;;;;;2087445;28;20577;-69
2022/06/25 00:58:32;;;;;;;14.65;13.18;;;20.00;99.90;;;;;;2087291;28;20036;-70
2022/06/25 00:59:42;;;;;;;13.90;12.60;;;20.00;99.90;;;;;;2087514;28;20016;-70
2022/06/25 01:00:43;;;;;;;13.60;12.30;;;20.00;99.90;;;;;;2087576;28;20025;-69
2022/06/25 01:01:44;;;;;;;13.65;12.30;;;20.00;99.90;;;;;;2088075;28;20021;-70
2022/06/25 01:02:47;;;;;;;13.50;12.13;;;20.00;99.90;;;;;;2088052;28;20365;-69
2022/06/25 01:03:48;;;;;;;13.48;12.07;;;20.00;99.90;;;;;;2087006;28;20068;-69
2022/06/25 01:04:50;;;;;;;14.23;12.80;;;20.00;99.90;;;;;;2079098;28;20033;-70
2022/06/25 01:05:51;;;;;;;13.93;12.50;;;20.00;99.90;;;;;;2087371;28;20047;-69
2022/06/25 01:06:52;;;;;;;13.65;12.45;;;20.00;99.90;;;;;;2087335;28;20027;-69
2022/06/25 01:07:52;;;;;;;13.38;12.07;;;20.00;99.90;;;;;;2079082;28;20084;-69
2022/06/25 01:08:53;;;;;;;12.50;11.40;;;20.00;99.90;;;;;;2087034;28;20021;-69
2022/06/25 01:09:54;;;;;;;13.35;12.15;;;20.00;99.90;;;;;;2078689;28;20026;-69
2022/06/25 01:10:55;;;;;;;12.77;11.68;;;20.00;99.90;;;;;;2079087;28;20666;-69
2022/06/25 01:11:56;;;;;;;13.38;11.98;;;20.00;99.90;;;;;;2087324;28;20033;-69
2022/06/25 01:12:56;;;;;;;13.50;12.18;;;20.00;99.90;;;;;;2079121;28;20037;-69
2022/06/25 01:13:57;;;;;;;13.32;12.13;;;20.00;99.90;;;;;;2087433;28;20129;-69
2022/06/25 01:15:09;;;;;;;13.32;12.02;;;20.00;99.90;;;;;;2087411;28;20057;-70
2022/06/25 01:16:10;;;;;;;13.90;12.50;;;20.00;99.90;;;;;;2087745;28;20116;-69
2022/06/25 01:17:11;;;;;;;13.50;12.20;;;20.00;99.90;;;;;;2078966;28;20479;-69
2022/06/25 01:18:13;;;;;;;13.60;12.15;;;20.00;99.90;;;;;;2079315;28;20041;-69
2022/06/25 01:19:14;;;;;;;13.82;12.35;;;20.00;99.90;;;;;;2087044;28;20501;-70
2022/06/25 10:20:31;;;;;;;6.35;4.97;;;24.10;99.90;;;;;;2023040;29;20033;-69
2022/06/25 10:21:33;;;;;;;9.15;5.25;;;24.30;99.90;;;;;;2022053;29;20041;-68
2022/06/25 10:22:38;;;;;;;7.80;6.15;;;24.30;99.90;;;;;;2015227;29;20044;-68
2022/06/25 10:23:40;;;;;;;7.50;4.93;;;24.30;99.90;;;;;;2003169;29;20034;-69
2022/06/25 10:24:41;;;;;;;5.82;4.93;;;24.30;99.90;;;;;;2023016;29;20024;-72
2022/06/25 10:25:42;;;;;;;5.57;4.72;;;24.40;99.90;;;;;;2016032;29;20541;-70
2022/06/25 10:26:43;;;;;;;5.40;4.95;;;24.50;99.90;;;;;;2015608;29;20025;-71
2022/06/25 10:27:48;;;;;;;5.90;5.15;;;24.50;99.90;;;;;;2023079;29;20112;-69
2022/06/25 10:28:49;;;;;;;5.80;5.30;;;24.50;99.90;;;;;;2016804;29;20037;-70
2022/06/25 10:29:57;;;;;;;5.40;4.88;;;24.50;99.90;;;;;;2015580;29;20460;-69
2022/06/25 10:30:58;;;;;;;6.47;5.45;;;24.50;99.90;;;;;;2008633;29;20042;-70
2022/06/25 10:32:13;;;;;;;6.40;5.80;;;24.50;99.90;;;;;;2015455;29;20029;-68
2022/06/25 10:33:15;;;;;;;6.35;5.57;;;24.50;99.90;;;;;;2015550;29;20040;-69
2022/06/25 10:34:16;;;;;;;5.53;4.60;;;24.40;99.90;;;;;;2015741;29;20097;-68
2022/06/25 10:35:29;;;;;;;5.60;5.10;;;24.40;99.90;;;;;;2015302;29;20037;-69
2022/06/25 10:36:44;;;;;;;6.00;5.35;;;24.60;99.90;;;;;;2009226;29;20412;-69
2022/06/25 10:38:08;;;;;;;7.75;5.90;;;24.60;99.90;;;;;;2017049;29;20399;-69
2022/06/25 10:39:29;;;;;;;6.63;6.03;;;24.50;99.90;;;;;;2017187;29;20037;-70
2022/06/25 10:43:00;;;;;;;6.38;5.70;;;24.60;99.90;;;;;;1993328;29;20102;-69
2022/06/25 10:44:00;;;;;;;5.47;4.90;;;24.60;99.90;;;;;;2013635;29;20041;-71
2022/06/25 10:45:04;;;;;;;7.78;5.70;;;24.70;99.90;;;;;;2016947;29;20029;-70
2022/06/25 10:46:36;;;;;;;6.85;5.47;;;24.80;99.90;;;;;;2001847;29;20361;-70
2022/06/25 10:47:37;;;;;;;6.80;6.18;;;24.80;99.90;;;;;;2013402;29;20028;-71
2022/06/25 10:48:50;;;;;;;7.97;6.50;;;24.60;99.90;;;;;;2016416;29;20040;-72
2022/06/25 10:49:50;;;;;;;6.63;6.03;;;24.60;99.90;;;;;;2016387;29;20033;-68
2022/06/25 10:50:53;;;;;;;8.82;6.50;;;24.60;99.90;;;;;;2016783;29;20155;-69
2022/06/25 10:51:54;;;;;;;7.60;6.90;;;24.60;99.90;;;;;;2016700;29;20041;-69
2022/06/25 10:53:03;;;;;;;7.13;6.50;;;24.50;99.90;;;;;;2016576;29;20043;-69
2022/06/25 10:54:10;;;;;;;7.43;6.35;;;24.50;99.90;;;;;;2010384;29;20029;-69
2022/06/25 10:55:12;;;;;;;7.43;6.72;;;24.50;99.90;;;;;;2017083;29;20386;-69
2022/06/25 10:56:14;;;;;;;8.38;7.03;;;24.60;99.90;;;;;;2017043;29;20395;-69
2022/06/25 10:57:38;;;;;;;8.25;6.25;;;24.60;99.90;;;;;;2016719;29;20033;-68
2022/06/25 10:58:44;;;;;;;8.02;7.22;;;24.70;99.90;;;;;;2016856;29;20025;-69
2022/06/25 10:59:47;;;;;;;8.40;6.55;;;24.80;99.90;;;;;;2016895;29;20029;-70
2022/06/25 11:00:53;;;;;;;6.93;5.82;;;24.80;99.90;;;;;;2016775;29;20089;-69
2022/06/25 11:02:07;;;;;;;10.40;6.60;;;24.90;99.90;;;;;;2017319;29;20737;-72
2022/06/25 11:03:08;;;;;;;6.85;6.15;;;25.00;99.90;;;;;;2016877;29;20616;-70
2022/06/25 11:04:11;;;;;;;8.60;6.65;;;25.10;99.90;;;;;;2009453;29;20025;-70
2022/06/25 11:05:18;;;;;;;7.05;5.53;;;25.10;99.90;;;;;;2010633;29;20036;-69
2022/06/25 11:06:34;;;;;;;7.60;6.90;;;25.30;99.90;;;;;;2018456;29;20177;-72
2022/06/25 11:07:35;;;;;;;6.53;5.47;;;25.30;99.90;;;;;;2017945;29;20467;-71
2022/06/25 11:08:36;;;;;;;7.68;6.32;;;25.40;99.90;;;;;;2016640;29;20036;-70
2022/06/25 11:09:38;;;;;;;7.32;5.90;;;25.50;99.90;;;;;;2009056;29;20038;-70
2022/06/25 11:10:40;;;;;;;6.68;5.90;;;25.50;99.90;;;;;;2016579;29;20117;-70
2022/06/25 11:11:45;;;;;;;7.53;5.80;;;25.60;99.90;;;;;;2016950;29;20213;-70
2022/06/25 11:12:48;;;;;;;5.30;4.80;;;25.70;99.90;;;;;;2017288;29;20483;-69
2022/06/25 11:13:49;;;;;;;7.55;6.43;;;25.90;99.90;;;;;;2016730;29;20080;-68
2022/06/25 11:14:59;;;;;;;6.75;5.75;;;25.90;99.90;;;;;;2009203;29;20471;-71
2022/06/25 11:16:14;;;;;;;;;;;25.90;99.90;;;;;;2011447;29;20050;-72
2022/06/25 11:17:14;;;;;;;8.60;7.70;;;25.90;99.90;;;;;;2010848;29;19912;-71
2022/06/25 11:18:15;;;;;;;7.18;6.40;;;25.90;99.90;;;;;;2016429;29;20029;-74
2022/06/25 11:19:17;;;;;;;7.45;6.20;;;25.90;99.90;;;;;;2016676;29;20388;-71
2022/06/25 11:20:17;;;;;;;5.75;5.28;;;25.90;99.90;;;;;;2016597;29;20065;-71
2022/06/25 11:21:34;;;;;;;9.35;6.40;;;26.00;99.90;;;;;;2016696;29;20041;-70
2022/06/25 11:22:46;;;;;;;8.70;6.15;;;26.00;99.90;;;;;;2017297;29;20070;-70
2022/06/25 11:23:47;;;;;;;7.05;5.68;;;26.00;99.90;;;;;;2017365;29;20025;-69
2022/06/25 11:28:51;;;;;;;8.13;7.20;;;25.80;99.90;;;;;;2017022;29;20029;-70
2022/06/25 11:29:53;;;;;;;6.75;6.15;;;25.60;99.90;;;;;;2015929;29;20534;-70
2022/06/25 11:30:54;;;;;;;6.38;5.78;;;25.60;99.90;;;;;;2017011;29;20033;-72
2022/06/25 11:31:56;;;;;;;7.13;6.10;;;25.70;99.90;;;;;;2016896;29;20148;-69
2022/06/25 11:32:58;;;;;;;6.53;5.88;;;25.80;99.90;;;;;;2016581;29;20736;-71
2022/06/25 11:34:02;;;;;;;7.00;5.68;;;25.80;99.90;;;;;;2016717;29;20075;-71
2022/06/25 11:35:03;;;;;;;8.02;6.00;;;25.90;99.90;;;;;;2016704;29;20069;-70
2022/06/25 11:36:11;;;;;;;7.65;6.70;;;25.90;99.90;;;;;;2016894;29;20116;-70
2022/06/25 11:37:12;;;;;;;6.20;5.60;;;26.00;99.90;;;;;;2016748;29;20045;-70
2022/06/25 11:38:17;;;;;;;8.07;6.78;;;26.00;99.90;;;;;;2008912;29;20586;-71
2022/06/25 11:39:18;;;;;;;8.75;7.65;;;26.00;99.90;;;;;;2016892;29;20049;-70
2022/06/25 11:40:18;;;;;;;8.27;6.97;;;25.90;99.90;;;;;;2016521;29;20040;-69
2022/06/25 11:41:26;;;;;;;9.63;7.55;;;25.90;99.90;;;;;;2017024;29;20184;-68
2022/06/25 11:42:27;;;;;;;7.70;6.90;;;25.80;99.90;;;;;;2017325;29;20029;-70
2022/06/25 11:43:28;;;;;;;9.65;7.60;;;25.90;99.90;;;;;;2016732;29;20025;-69
2022/06/25 11:44:38;;;;;;;6.65;5.95;;;26.00;99.90;;;;;;2016870;29;20033;-71
2022/06/25 11:45:54;;;;;;;7.23;6.50;;;26.10;99.90;;;;;;2017285;29;20045;-69
2022/06/25 11:46:55;;;;;;;6.97;5.95;;;26.30;99.90;;;;;;2017105;29;20041;-69
2022/06/25 11:47:56;;;;;;;7.32;6.60;;;26.50;99.90;;;;;;2016360;29;20029;-69
2022/06/25 11:48:57;;;;;;;5.80;5.30;;;26.50;99.90;;;;;;2016655;29;20036;-69
2022/06/25 11:49:58;;;;;;;6.25;5.65;;;26.60;99.90;;;;;;2016472;29;20025;-69
2022/06/25 11:51:01;;;;;;;6.40;5.55;;;26.80;99.90;;;;;;2016697;29;20048;-71
2022/06/25 11:52:04;;;;;;;6.95;6.35;;;26.90;99.90;;;;;;2009358;29;20030;-70
2022/06/25 11:53:05;;;;;;;6.57;5.93;;;27.00;99.90;;;;;;2016494;29;20029;-71
2022/06/25 11:54:06;;;;;;;7.03;6.32;;;27.00;99.90;;;;;;2017376;29;20132;-70
2022/06/25 11:55:08;;;;;;;9.35;7.38;;;27.00;99.90;;;;;;2017276;29;20064;-71
2022/06/25 11:56:08;;;;;;;7.97;7.28;;;26.80;99.90;;;;;;2017244;29;20269;-69
2022/06/25 11:57:15;;;;;;;10.45;7.55;;;26.60;99.90;;;;;;2016643;29;20132;-68
2022/06/25 11:58:16;;;;;;;7.55;5.80;;;26.60;99.90;;;;;;2016548;29;20037;-69
2022/06/25 11:59:25;;;;;;;6.10;5.50;;;26.60;99.90;;;;;;2017170;29;20037;-68
2022/06/25 12:00:25;;;;;;;8.35;5.93;;;26.80;99.90;;;;;;2017285;29;20047;-70
2022/06/25 12:01:30;;;;;;;6.20;5.57;;;26.80;99.90;;;;;;2018084;29;20044;-70
2022/06/25 12:02:30;;;;;;;6.25;5.38;;;26.90;99.90;;;;;;2018741;29;20024;-70
2022/06/25 12:03:33;;;;;;;7.15;6.45;;;27.00;99.90;;;;;;2017572;29;20482;-70
2022/06/25 12:04:59;;;;;;;6.60;5.60;;;26.90;99.90;;;;;;2010233;29;20109;-69
2022/06/25 12:06:01;;;;;;;7.68;6.97;;;26.80;99.90;;;;;;2012124;29;20036;-70
2022/06/25 12:07:02;;;;;;;7.80;6.57;;;26.70;99.90;;;;;;2016466;29;20021;-71
2022/06/25 12:08:03;;;;;;;7.00;6.43;;;26.70;99.90;;;;;;2016907;29;20101;-71
2022/06/25 12:09:04;;;;;;;6.53;5.93;;;26.70;99.90;;;;;;2017026;29;20380;-69
2022/06/25 12:10:10;;;;;;;6.43;5.50;;;26.70;99.90;;;;;;2016789;29;20040;-69
2022/06/25 12:11:11;;;;;;;6.30;5.50;;;26.80;99.90;;;;;;2016962;29;20165;-70
2022/06/25 12:12:12;;;;;;;5.30;4.80;;;26.80;99.90;;;;;;2017201;29;20033;-71
2022/06/25 12:13:16;;;;;;;6.30;5.57;;;26.90;99.90;;;;;;2017438;29;20033;-71
2022/06/25 12:14:18;;;;;;;6.85;5.82;;;27.10;99.90;;;;;;2016465;29;20033;-71
2022/06/25 12:15:27;;;;;;;6.35;5.75;;;27.10;99.80;;;;;;2016793;29;20033;-71
2022/06/25 12:16:43;;;;;;;5.50;4.95;;;27.10;99.60;;;;;;2017308;29;20040;-71
2022/06/25 12:17:44;;;;;;;5.82;5.30;;;27.20;99.30;;;;;;2016551;29;20067;-71
2022/06/25 12:18:44;;;;;;;5.50;5.00;;;27.30;98.90;;;;;;2016452;29;20537;-71
2022/06/25 12:19:53;;;;;;;6.07;5.57;;;27.50;98.50;;;;;;2017441;29;20551;-71
2022/06/25 12:20:55;;;;;;;5.05;4.53;;;27.50;97.70;;;;;;2016973;29;20037;-72
2022/06/25 12:21:55;;;;;;;5.43;4.88;;;27.60;97.60;;;;;;2017232;29;20189;-71
2022/06/25 12:22:57;;;;;;;6.53;5.93;;;27.70;97.90;;;;;;2016424;29;20044;-71
2022/06/25 12:23:59;;;;;;;6.38;5.75;;;27.70;97.10;;;;;;2009052;29;20022;-70
2022/06/25 12:25:00;;;;;;;6.43;5.60;;;27.60;96.70;;;;;;2008864;29;20104;-69
2022/06/25 12:26:01;;;;;;;7.15;6.43;;;27.50;96.70;;;;;;2016870;29;20479;-69
2022/06/25 12:27:02;;;;;;;7.72;6.45;;;27.40;97.20;;;;;;2017163;29;20805;-69
2022/06/25 12:28:03;;;;;;;6.93;5.80;;;27.20;97.00;;;;;;2016090;29;20721;-70
2022/06/25 12:29:07;;;;;;;7.93;5.80;;;27.30;97.40;;;;;;2016381;29;20406;-69
2022/06/25 12:30:08;;;;;;;7.38;5.43;;;27.20;97.80;;;;;;2015900;29;20699;-68
2022/06/25 12:31:16;;;;;;;6.65;5.85;;;27.40;97.20;;;;;;2016698;29;20048;-68
2022/06/25 12:32:16;;;;;;;6.72;5.40;;;27.40;96.50;;;;;;2016537;29;20033;-69
2022/06/25 12:33:17;;;;;;;7.32;6.22;;;27.50;96.90;;;;;;2016521;29;20068;-68
2022/06/25 12:34:18;;;;;;;5.95;5.45;;;27.40;96.60;;;;;;2016140;29;20128;-70
2022/06/25 12:35:23;;;;;;;6.32;5.60;;;27.40;96.40;;;;;;2016857;29;20036;-68
2022/06/25 12:36:25;;;;;;;5.70;5.20;;;27.30;96.00;;;;;;2017286;29;20604;-69
2022/06/25 12:37:31;;;;;;;5.60;5.10;;;27.40;95.90;;;;;;2017270;29;20207;-71
2022/06/25 12:38:39;;;;;;;5.75;5.25;;;27.50;95.80;;;;;;2016204;29;20725;-71
2022/06/25 12:39:45;;;;;;;6.90;5.72;;;27.40;95.90;;;;;;2016214;29;20189;-71
2022/06/25 12:40:48;;;;;;;6.95;5.55;;;27.50;96.20;;;;;;2016177;29;20028;-71
2022/06/25 12:41:49;;;;;;;6.55;5.32;;;27.40;95.90;;;;;;2009143;29;20100;-71
2022/06/25 12:42:55;;;;;;;7.97;6.05;;;27.40;95.90;;;;;;2008564;29;20073;-71
2022/06/25 12:43:55;;;;;;;6.82;6.15;;;27.40;95.50;;;;;;2016488;29;20079;-71
2022/06/25 12:44:57;;;;;;;5.80;5.30;;;27.30;95.40;;;;;;2017074;29;20801;-71
2022/06/25 12:46:08;;;;;;;7.75;6.00;;;27.30;95.30;;;;;;2016960;29;20040;-70
2022/06/25 12:47:11;;;;;;;5.22;4.82;;;27.40;95.40;;;;;;2017225;29;20028;-70
2022/06/25 12:48:13;;;;;;;7.47;5.50;;;27.50;95.40;;;;;;2017258;29;20026;-68
2022/06/25 12:49:13;;;;;;;8.13;6.05;;;27.50;95.20;;;;;;2017218;29;20551;-69
2022/06/25 12:50:25;;;;;;;5.65;5.15;;;27.40;94.60;;;;;;2016736;29;20040;-68
2022/06/25 12:51:27;;;;;;;5.70;5.25;;;27.30;94.80;;;;;;2017222;29;20033;-70
2022/06/25 12:52:39;;;;;;;7.35;6.05;;;27.40;94.90;;;;;;2017067;29;20041;-69
2022/06/25 12:53:41;;;;;;;7.65;5.70;;;27.40;95.50;;;;;;2016956;29;20035;-70
2022/06/25 12:54:48;;;;;;;6.63;5.70;;;27.20;94.90;;;;;;2016906;29;20064;-70
2022/06/25 12:55:50;;;;;;;8.43;5.75;;;27.10;95.40;;;;;;2017061;29;20037;-71
2022/06/25 12:56:53;;;;;;;7.38;5.50;;;27.00;95.30;;;;;;2017460;29;20136;-70
2022/06/25 12:57:54;;;;;;;5.10;4.70;;;27.10;95.60;;;;;;2016518;29;20033;-70
2022/06/25 12:58:57;;;;;;;5.30;4.82;;;27.10;95.50;;;;;;2016247;29;20488;-68
2022/06/25 13:00:16;;;;;;;5.22;4.80;;;27.20;95.50;;;;;;2016546;29;20057;-69
2022/06/25 13:01:29;;;;;;;5.95;5.45;;;27.30;95.30;;;;;;2017064;29;20045;-70
2022/06/25 13:02:31;;;;;;;6.00;5.50;;;27.40;95.00;;;;;;2016392;29;20033;-73
2022/06/25 13:03:32;;;;;;;5.70;5.20;;;27.30;95.20;;;;;;2016477;29;20120;-70
2022/06/25 13:04:32;;;;;;;5.43;4.90;;;27.30;94.50;;;;;;2017145;29;20032;-70
2022/06/25 13:05:34;;;;;;;6.20;5.60;;;27.30;94.40;;;;;;2017129;29;20053;-70
2022/06/25 13:06:34;;;;;;;5.85;5.22;;;27.30;94.60;;;;;;2016765;29;20037;-70
2022/06/25 13:07:35;;;;;;;6.43;4.63;;;27.20;94.20;;;;;;2017124;29;20663;-69
2022/06/25 13:08:36;;;;;;;5.75;4.70;;;27.10;94.30;;;;;;2016572;29;20029;-71
2022/06/25 13:09:37;;;;;;;5.25;4.75;;;27.10;94.40;;;;;;2016652;29;20029;-70
2022/06/25 13:10:42;;;;;;;5.25;4.40;;;27.10;94.20;;;;;;2016650;29;20026;-68
2022/06/25 13:11:42;;;;;;;4.95;4.50;;;27.10;94.00;;;;;;2016058;29;20088;-68
2022/06/25 13:12:43;;;;;;;4.70;4.30;;;27.00;93.80;;;;;;2016124;29;20029;-68
2022/06/25 13:13:45;;;;;;;4.78;4.38;;;27.10;93.80;;;;;;2016605;29;20104;-68
2022/06/25 13:14:45;;;;;;;5.38;4.75;;;27.00;93.80;;;;;;2016689;29;20021;-69
2022/06/25 13:15:47;;;;;;;5.28;4.88;;;27.00;93.90;;;;;;2016319;29;20081;-68
2022/06/25 13:16:48;;;;;;;5.13;4.68;;;27.10;94.10;;;;;;2015562;29;20104;-69
2022/06/25 13:17:50;;;;;;;5.85;4.55;;;27.00;93.90;;;;;;2015729;29;20036;-69
2022/06/25 13:18:51;;;;;;;5.90;5.40;;;26.90;93.80;;;;;;2016255;29;20118;-68
2022/06/25 13:19:51;;;;;;;10.93;9.88;;;26.80;93.70;;;;;;2016185;29;20094;-68
2022/06/25 13:20:52;;;;;;;5.70;5.20;;;26.80;93.70;;;;;;2016132;29;20068;-68
2022/06/25 13:21:53;;;;;;;5.95;5.05;;;26.60;93.90;;;;;;2015708;29;20073;-69
2022/06/25 13:22:54;;;;;;;5.82;4.70;;;26.60;93.60;;;;;;2015569;29;20108;-68
2022/06/25 13:23:55;;;;;;;5.47;4.80;;;26.60;93.10;;;;;;2016135;29;20043;-68
2022/06/25 13:24:55;;;;;;;4.53;4.13;;;26.50;93.10;;;;;;2007795;29;20025;-68
2022/06/25 13:25:56;;;;;;;4.07;3.78;;;26.50;92.60;;;;;;2007781;29;20036;-68
2022/06/25 13:26:57;;;;;;;4.35;4.05;;;26.60;92.30;;;;;;2016237;29;20376;-68
2022/06/25 13:27:57;;;;;;;4.53;4.10;;;26.60;91.50;;;;;;2016333;29;20439;-68
2022/06/25 13:28:58;;;;;;;4.60;4.20;;;26.60;91.30;;;;;;2016114;29;20033;-68
2022/06/25 13:29:59;;;;;;;4.82;4.40;;;26.60;90.70;;;;;;2015354;29;20037;-68
2022/06/25 13:31:00;;;;;;;4.80;4.13;;;26.60;91.10;;;;;;2015505;29;20550;-68
2022/06/25 13:32:01;;;;;;;5.10;4.35;;;26.60;91.20;;;;;;2015522;29;20029;-68
2022/06/25 13:33:02;;;;;;;9.18;4.68;;;26.60;91.30;;;;;;2016214;29;20033;-68
2022/06/25 13:34:02;;;;;;;4.50;4.07;;;26.60;91.10;;;;;;2007785;29;20511;-68
2022/06/25 13:35:05;;;;;;;4.72;4.22;;;26.50;91.10;;;;;;2007912;29;20037;-68
2022/06/25 13:36:06;;;;;;;5.07;4.10;;;26.60;91.20;;;;;;2016164;29;20025;-67
2022/06/25 13:37:07;;;;;;;4.97;4.53;;;26.60;91.20;;;;;;2016049;29;20112;-67
2022/06/25 13:38:07;;;;;;;6.68;4.47;;;26.70;91.10;;;;;;2015303;29;20668;-68
2022/06/25 13:39:09;;;;;;;4.30;3.90;;;26.70;91.20;;;;;;2015433;29;20112;-67
2022/06/25 13:40:10;;;;;;;5.13;4.32;;;26.70;91.50;;;;;;2015833;29;20509;-69
2022/06/25 13:41:11;;;;;;;4.75;4.35;;;26.80;91.60;;;;;;2015969;29;20025;-68
2022/06/25 13:42:23;;;;;;;5.13;4.15;;;26.90;91.40;;;;;;2016138;29;20040;-69
2022/06/25 13:43:24;;;;;;;5.47;4.30;;;26.90;91.10;;;;;;2015853;29;20502;-68
2022/06/25 13:44:25;;;;;;;4.80;4.00;;;27.00;90.90;;;;;;2015093;29;20029;-68
2022/06/25 13:45:27;;;;;;;5.75;3.97;;;27.10;90.50;;;;;;2015499;29;20033;-68
2022/06/25 13:46:30;;;;;;;5.22;4.20;;;27.20;90.20;;;;;;2000041;29;20030;-67
2022/06/25 13:47:31;;;;;;;4.75;4.35;;;27.20;89.40;;;;;;1999945;29;20026;-67
2022/06/25 13:48:32;;;;;;;5.40;4.30;;;27.30;89.00;;;;;;2015468;29;20132;-67
2022/06/25 13:49:33;;;;;;;4.35;4.05;;;27.40;88.70;;;;;;2015358;29;20028;-68
2022/06/25 13:50:34;;;;;;;4.75;4.28;;;27.50;88.40;;;;;;2015453;29;20021;-67
2022/06/25 13:51:35;;;;;;;5.18;4.53;;;27.60;88.10;;;;;;2016086;29;20056;-67
2022/06/25 13:52:36;;;;;;;4.97;4.50;;;27.60;87.70;;;;;;2016159;29;20029;-67
2022/06/25 13:53:36;;;;;;;4.88;4.20;;;27.60;87.20;;;;;;2015366;29;20044;-67
2022/06/25 13:54:37;;;;;;;4.30;4.00;;;27.80;87.70;;;;;;2015346;29;20134;-68
2022/06/25 13:55:38;;;;;;;4.70;4.30;;;28.00;86.70;;;;;;2016033;29;20495;-67
2022/06/25 13:56:39;;;;;;;5.20;4.70;;;28.10;86.10;;;;;;2016075;29;20461;-68
2022/06/25 13:57:39;;;;;;;5.88;5.28;;;28.10;85.90;;;;;;2015428;29;20029;-68
2022/06/25 13:58:40;;;;;;;5.72;5.20;;;28.10;86.00;;;;;;2015137;29;20049;-67
2022/06/25 13:59:41;;;;;;;6.43;5.80;;;28.20;86.10;;;;;;2015785;29;20071;-67
2022/06/25 14:00:43;;;;;;;6.93;5.55;;;28.20;85.30;;;;;;2015591;29;20047;-67
2022/06/25 14:01:43;;;;;;;6.60;5.28;;;28.10;85.70;;;;;;2015400;29;20067;-69
2022/06/25 14:02:45;;;;;;;6.97;5.70;;;28.20;86.60;;;;;;2015200;29;20048;-66
2022/06/25 14:03:46;;;;;;;5.82;5.32;;;28.10;86.40;;;;;;2016172;29;20021;-67
2022/06/25 14:04:47;;;;;;;6.72;5.65;;;28.10;85.90;;;;;;2015405;29;20025;-67
2022/06/25 14:05:47;;;;;;;6.13;5.40;;;28.00;85.50;;;;;;2015276;29;20029;-67
2022/06/25 14:06:49;;;;;;;6.40;5.60;;;27.90;85.70;;;;;;2015455;29;20066;-69
2022/06/25 14:07:49;;;;;;;6.10;5.05;;;27.80;86.50;;;;;;2016118;29;20033;-68
2022/06/25 14:08:50;;;;;;;5.45;4.90;;;27.80;86.60;;;;;;2015821;29;20065;-68
2022/06/25 14:09:51;;;;;;;4.68;4.28;;;27.80;86.70;;;;;;2015768;29;20040;-69
2022/06/25 14:10:52;;;;;;;5.38;4.88;;;28.00;86.40;;;;;;2015917;29;20032;-68
2022/06/25 14:11:52;;;;;;;5.07;4.18;;;28.00;84.80;;;;;;2016664;29;20033;-68
2022/06/25 14:12:53;;;;;;;5.75;4.57;;;28.10;84.90;;;;;;2017659;29;20037;-68
2022/06/25 14:13:54;;;;;;;6.18;4.18;;;28.10;84.40;;;;;;2017112;29;20072;-68
2022/06/25 14:14:54;;;;;;;4.90;4.40;;;28.10;84.00;;;;;;2016855;29;20104;-68
2022/06/25 14:15:55;;;;;;;5.88;4.30;;;28.10;83.90;;;;;;2017624;29;20597;-68
2022/06/25 14:16:56;;;;;;;6.63;4.80;;;28.10;83.60;;;;;;2016827;29;20037;-68
2022/06/25 14:17:58;;;;;;;5.25;4.75;;;28.00;83.50;;;;;;2016863;29;20447;-67
2022/06/25 14:18:58;;;;;;;5.22;4.60;;;28.00;83.00;;;;;;2016584;29;20029;-67
2022/06/25 14:20:02;;;;;;;4.53;4.13;;;28.10;82.80;;;;;;2016534;29;20131;-68
2022/06/25 14:21:03;;;;;;;4.78;4.28;;;28.30;82.40;;;;;;2016675;29;20037;-67
2022/06/25 14:22:04;;;;;;;4.85;4.45;;;28.30;81.20;;;;;;2016829;29;20033;-68
2022/06/25 14:23:05;;;;;;;6.10;4.53;;;28.30;81.30;;;;;;2017022;29;20040;-68
2022/06/25 14:24:06;;;;;;;6.45;4.50;;;28.30;81.00;;;;;;2009207;29;20030;-67
2022/06/25 14:25:26;;;;;;;4.95;4.55;;;28.30;80.60;;;;;;2009166;29;20484;-68
2022/06/25 14:26:27;;;;;;;6.70;4.88;;;28.30;80.60;;;;;;2017036;29;20032;-66
2022/06/25 14:27:28;;;;;;;5.47;4.40;;;28.40;82.30;;;;;;2017515;29;20076;-67
2022/06/25 14:28:28;;;;;;;5.50;4.55;;;28.40;82.30;;;;;;2017270;29;20072;-67
2022/06/25 14:29:29;;;;;;;4.80;4.00;;;28.40;81.50;;;;;;2017353;29;20119;-68
2022/06/25 14:30:32;;;;;;;7.05;4.53;;;28.40;82.00;;;;;;2017202;29;20032;-68
2022/06/25 14:31:36;;;;;;;6.35;4.75;;;28.50;82.10;;;;;;2016929;29;20123;-68
2022/06/25 14:32:37;;;;;;;5.57;4.80;;;28.40;81.20;;;;;;2016705;29;20048;-68
2022/06/25 14:33:37;;;;;;;5.00;4.50;;;28.30;82.60;;;;;;2016772;29;20032;-69
2022/06/25 14:34:38;;;;;;;4.82;4.43;;;28.40;82.50;;;;;;2016629;29;20049;-69
2022/06/25 14:35:39;;;;;;;4.93;4.53;;;28.30;82.00;;;;;;2016799;29;20037;-69